createdAt,value
2022-12-10T00:02:15.573Z,23.00
2022-12-10T00:04:49.450Z,19.50
2022-12-10T00:07:21.868Z,18.80
2022-12-10T00:09:54.038Z,18.50
2022-12-10T00:12:26.189Z,16.50
2022-12-10T00:14:58.390Z,16.30
2022-12-10T00:17:30.677Z,18.60
2022-12-10T00:20:02.886Z,19.70
2022-12-10T00:22:35.005Z,18.80
2022-12-10T00:25:07.899Z,20.10
2022-12-10T00:27:40.000Z,18.90
2022-12-10T00:30:14.921Z,20.30
2022-12-10T00:32:47.063Z,19.60
2022-12-10T00:35:19.856Z,19.00
2022-12-10T00:37:52.247Z,17.80
2022-12-10T00:40:25.190Z,19.10
2022-12-10T00:42:58.241Z,18.10
2022-12-10T00:45:30.502Z,18.20
2022-12-10T00:48:02.637Z,20.40
2022-12-10T00:50:34.817Z,18.80
2022-12-10T00:53:07.067Z,17.90
2022-12-10T00:55:39.498Z,16.30
2022-12-10T00:58:11.670Z,15.90
2022-12-10T01:00:43.955Z,15.80
2022-12-10T01:03:16.529Z,15.60
2022-12-10T01:05:50.819Z,16.40
2022-12-10T01:08:23.035Z,16.50
2022-12-10T01:10:57.559Z,16.40
2022-12-10T01:13:29.692Z,17.00
2022-12-10T01:16:04.280Z,16.60
2022-12-10T01:18:36.711Z,16.50
2022-12-10T01:21:10.515Z,17.40
2022-12-10T01:23:44.792Z,17.30
2022-12-10T01:26:18.641Z,17.60
2022-12-10T01:28:52.076Z,17.80
2022-12-10T01:31:27.279Z,16.00
2022-12-10T01:34:00.138Z,19.20
2022-12-10T01:36:34.417Z,17.50
2022-12-10T01:39:08.948Z,16.80
2022-12-10T01:41:43.238Z,16.00
2022-12-10T01:44:46.151Z,15.40
2022-12-10T01:47:18.319Z,17.60
2022-12-10T01:49:50.541Z,17.20
2022-12-10T01:52:24.539Z,18.60
2022-12-10T01:54:56.809Z,18.30
2022-12-10T01:57:30.606Z,18.30
2022-12-10T02:00:07.944Z,18.10
2022-12-10T02:02:58.290Z,19.50
2022-12-10T02:05:39.008Z,21.10
2022-12-10T02:08:20.393Z,18.40
2022-12-10T02:11:10.308Z,18.60
2022-12-10T02:13:45.429Z,17.30
2022-12-10T02:16:22.212Z,17.40
2022-12-10T02:19:00.566Z,17.10
2022-12-10T02:21:38.840Z,17.50
2022-12-10T02:26:50.590Z,15.60
2022-12-10T02:29:27.237Z,16.10
2022-12-10T02:32:03.344Z,15.80
2022-12-10T02:34:40.546Z,18.00
2022-12-10T02:37:17.909Z,17.30
2022-12-10T02:39:55.828Z,18.50
2022-12-10T02:42:30.683Z,15.90
2022-12-10T02:45:04.321Z,15.50
2022-12-10T02:47:37.470Z,15.50
2022-12-10T02:50:15.041Z,13.80
2022-12-10T02:52:47.378Z,14.60
2022-12-10T02:55:21.413Z,13.60
2022-12-10T02:58:08.830Z,14.10
2022-12-10T03:00:50.899Z,12.60
2022-12-10T03:03:34.322Z,12.30
2022-12-10T03:06:13.728Z,12.00
2022-12-10T03:08:51.616Z,12.60
2022-12-10T03:11:27.265Z,12.80
2022-12-10T03:14:04.964Z,13.00
2022-12-10T03:16:43.353Z,13.30
2022-12-10T03:19:19.744Z,12.40
2022-12-10T03:21:53.819Z,12.70
2022-12-10T03:24:29.923Z,13.00
2022-12-10T03:27:02.329Z,12.80
2022-12-10T03:29:39.726Z,12.30
2022-12-10T03:32:12.430Z,14.00
2022-12-10T03:34:46.666Z,13.60
2022-12-10T03:37:19.411Z,12.30
2022-12-10T03:39:52.093Z,13.80
2022-12-10T03:42:25.391Z,12.60
2022-12-10T03:44:57.676Z,14.00
2022-12-10T03:47:29.865Z,11.50
2022-12-10T03:50:02.178Z,11.50
2022-12-10T03:52:34.431Z,11.80
2022-12-10T03:55:08.191Z,12.20
2022-12-10T03:57:41.310Z,11.20
2022-12-10T04:00:15.653Z,12.40
2022-12-10T04:02:47.989Z,10.80
2022-12-10T04:05:20.691Z,12.40
2022-12-10T04:07:53.228Z,13.10
2022-12-10T04:10:25.687Z,14.80
2022-12-10T04:13:11.852Z,13.20
2022-12-10T04:16:02.096Z,15.80
2022-12-10T04:18:34.410Z,13.30
2022-12-10T04:21:24.625Z,14.20
2022-12-10T04:24:14.963Z,13.90
2022-12-10T04:26:56.359Z,13.10
2022-12-10T04:29:30.436Z,12.40
2022-12-10T04:32:02.769Z,14.70
2022-12-10T04:34:35.706Z,13.90
2022-12-10T04:37:08.566Z,15.50
2022-12-10T04:39:41.472Z,13.20
2022-12-10T04:42:13.861Z,14.70
2022-12-10T04:44:46.227Z,14.20
2022-12-10T04:47:19.031Z,14.50
2022-12-10T04:49:51.271Z,14.70
2022-12-10T04:52:23.539Z,12.80
2022-12-10T04:54:55.649Z,14.20
2022-12-10T04:57:27.749Z,13.50
2022-12-10T04:59:59.895Z,14.60
2022-12-10T05:02:32.818Z,16.50
2022-12-10T05:05:05.253Z,16.80
2022-12-10T05:07:38.021Z,14.50
2022-12-10T05:10:11.498Z,13.00
2022-12-10T05:12:44.083Z,14.10
2022-12-10T05:15:16.421Z,15.20
2022-12-10T05:17:48.702Z,13.60
2022-12-10T05:20:20.949Z,13.90
2022-12-10T05:23:10.596Z,13.80
2022-12-10T05:25:53.871Z,14.50
2022-12-10T05:28:26.510Z,16.20
2022-12-10T05:30:59.473Z,16.00
2022-12-10T05:33:31.807Z,14.20
2022-12-10T05:36:06.066Z,12.40
2022-12-10T05:38:38.184Z,14.50
2022-12-10T05:41:13.497Z,15.30
2022-12-10T05:43:46.590Z,15.50
2022-12-10T05:46:21.535Z,14.80
2022-12-10T05:48:55.188Z,17.90
2022-12-10T05:51:30.679Z,15.30
2022-12-10T05:54:04.591Z,17.60
2022-12-10T05:56:37.496Z,17.80
2022-12-10T05:59:16.582Z,19.60
2022-12-10T06:01:49.199Z,19.30
2022-12-10T06:04:21.563Z,17.10
2022-12-10T06:06:53.917Z,16.50
2022-12-10T06:09:26.226Z,15.80
2022-12-10T06:11:58.604Z,15.40
2022-12-10T06:14:30.903Z,17.30
2022-12-10T06:17:03.176Z,12.80
2022-12-10T06:19:35.498Z,12.80
2022-12-10T06:22:07.834Z,14.80
2022-12-10T06:24:40.270Z,11.30
2022-12-10T06:27:12.788Z,12.60
2022-12-10T06:29:46.478Z,12.00
2022-12-10T06:32:18.773Z,11.70
2022-12-10T06:34:51.058Z,10.60
2022-12-10T06:37:23.368Z,10.80
2022-12-10T06:39:55.937Z,11.40
2022-12-10T06:42:28.234Z,9.90
2022-12-10T06:45:00.349Z,10.10
2022-12-10T06:47:32.769Z,10.30
2022-12-10T06:50:05.669Z,12.30
2022-12-10T06:52:37.971Z,10.90
2022-12-10T06:55:11.029Z,10.60
2022-12-10T06:57:43.425Z,13.30
2022-12-10T07:00:21.743Z,11.70
2022-12-10T07:02:55.531Z,12.00
2022-12-10T07:05:27.966Z,13.20
2022-12-10T07:08:00.445Z,13.40
2022-12-10T07:10:33.012Z,12.70
2022-12-10T07:13:05.192Z,12.30
2022-12-10T07:15:37.346Z,11.30
2022-12-10T07:18:09.526Z,10.80
2022-12-10T07:20:41.784Z,10.50
2022-12-10T07:23:14.089Z,13.20
2022-12-10T07:25:46.315Z,12.10
2022-12-10T07:28:19.752Z,13.80
2022-12-10T07:30:52.338Z,14.60
2022-12-10T07:33:24.615Z,14.40
2022-12-10T07:35:57.617Z,12.50
2022-12-10T07:38:29.773Z,14.50
2022-12-10T07:41:04.505Z,16.20
2022-12-10T07:43:39.034Z,16.20
2022-12-10T07:46:13.503Z,12.10
2022-12-10T07:48:47.186Z,13.80
2022-12-10T07:51:21.916Z,14.10
2022-12-10T07:53:55.841Z,21.10
2022-12-10T07:56:28.454Z,21.80
2022-12-10T07:59:00.580Z,12.40
2022-12-10T08:01:32.909Z,11.80
2022-12-10T08:04:05.593Z,12.10
2022-12-10T08:06:37.826Z,13.60
2022-12-10T08:09:10.169Z,11.50
2022-12-10T08:11:42.449Z,12.10
2022-12-10T08:14:14.733Z,11.20
2022-12-10T08:16:47.058Z,10.10
2022-12-10T08:19:23.764Z,13.60
2022-12-10T08:21:58.283Z,12.50
2022-12-10T08:24:30.623Z,12.10
2022-12-10T08:27:02.801Z,14.10
2022-12-10T08:29:35.214Z,15.00
2022-12-10T08:32:07.777Z,12.90
2022-12-10T08:34:40.108Z,14.40
2022-12-10T08:37:12.691Z,13.70
2022-12-10T08:39:45.089Z,18.90
2022-12-10T08:42:17.990Z,17.80
2022-12-10T08:44:51.952Z,18.00
2022-12-10T08:47:24.214Z,13.40
2022-12-10T08:49:56.466Z,12.10
2022-12-10T08:52:31.764Z,15.80
2022-12-10T08:55:04.486Z,13.90
2022-12-10T08:57:36.655Z,12.60
2022-12-10T09:00:11.642Z,13.80
2022-12-10T09:02:44.016Z,12.30
2022-12-10T09:05:16.407Z,12.60
2022-12-10T09:07:49.099Z,16.10
2022-12-10T09:10:23.128Z,14.40
2022-12-10T09:12:59.885Z,13.80
2022-12-10T09:15:35.238Z,17.60
2022-12-10T09:18:07.689Z,14.90
2022-12-10T09:20:40.533Z,15.70
2022-12-10T09:23:12.934Z,17.10
2022-12-10T09:25:45.057Z,17.30
2022-12-10T09:28:20.303Z,16.30
2022-12-10T09:31:01.405Z,18.30
2022-12-10T09:33:34.615Z,18.70
2022-12-10T09:36:09.560Z,16.70
2022-12-10T09:38:44.833Z,16.80
2022-12-10T09:41:34.846Z,18.10
2022-12-10T09:44:13.454Z,20.50
2022-12-10T09:46:53.961Z,20.60
2022-12-10T09:49:35.866Z,15.80
2022-12-10T09:52:13.586Z,24.00
2022-12-10T09:54:50.417Z,25.80
2022-12-10T09:57:28.118Z,22.30
2022-12-10T10:00:04.105Z,21.20
2022-12-10T10:02:43.989Z,22.30
2022-12-10T10:05:22.685Z,24.50
2022-12-10T10:07:57.769Z,21.30
2022-12-10T10:10:32.697Z,18.20
2022-12-10T10:13:18.663Z,17.50
2022-12-10T10:15:51.913Z,18.90
2022-12-10T10:18:38.962Z,31.80
2022-12-10T10:21:22.815Z,28.30
2022-12-10T10:23:56.384Z,26.10
2022-12-10T10:26:29.946Z,20.20
2022-12-10T10:29:06.919Z,23.00
2022-12-10T10:31:43.257Z,22.00
2022-12-10T10:34:21.714Z,18.30
2022-12-10T10:36:59.920Z,16.10
2022-12-10T10:39:35.882Z,20.90
2022-12-10T10:42:12.459Z,22.40
2022-12-10T10:44:46.189Z,21.60
2022-12-10T10:47:35.042Z,19.60
2022-12-10T10:50:25.364Z,20.80
2022-12-10T10:52:57.706Z,20.50
2022-12-10T10:55:36.898Z,19.50
2022-12-10T10:58:18.002Z,16.50
2022-12-10T11:00:59.826Z,18.30
2022-12-10T11:03:35.532Z,20.20
2022-12-10T11:06:11.115Z,18.60
2022-12-10T11:08:47.093Z,18.70
2022-12-10T11:11:24.635Z,15.20
2022-12-10T11:14:14.717Z,14.30
2022-12-10T11:16:47.126Z,15.50
2022-12-10T11:19:27.691Z,16.20
2022-12-10T11:22:21.825Z,14.80
2022-12-10T11:24:54.179Z,13.10
2022-12-10T11:27:49.404Z,9.70
2022-12-10T11:30:25.176Z,14.80
2022-12-10T11:33:14.685Z,14.30
2022-12-10T11:36:04.744Z,14.50
2022-12-10T11:38:47.448Z,13.40
2022-12-10T11:41:31.548Z,17.80
2022-12-10T11:44:18.480Z,21.70
2022-12-10T11:47:04.485Z,47.70
2022-12-10T11:49:44.574Z,39.50
2022-12-10T11:52:26.745Z,20.80
2022-12-10T11:55:15.315Z,28.50
2022-12-10T11:57:53.672Z,22.70
2022-12-10T12:00:29.729Z,26.10
2022-12-10T12:03:41.822Z,26.00
2022-12-10T12:06:33.335Z,23.60
2022-12-10T12:09:11.503Z,19.30
2022-12-10T12:11:56.948Z,18.00
2022-12-10T12:14:33.784Z,16.60
2022-12-10T12:17:11.959Z,15.60
2022-12-10T12:19:48.559Z,13.60
2022-12-10T12:22:28.121Z,14.90
2022-12-10T12:25:04.630Z,15.50
2022-12-10T12:27:41.135Z,12.90
2022-12-10T12:30:20.217Z,16.90
2022-12-10T12:32:58.300Z,21.30
2022-12-10T12:35:40.946Z,27.80
2022-12-10T12:38:29.444Z,26.30
2022-12-10T12:41:06.036Z,21.40
2022-12-10T12:43:46.970Z,21.80
2022-12-10T12:46:23.325Z,27.20
2022-12-10T12:49:04.062Z,21.00
2022-12-10T12:51:42.262Z,23.20
2022-12-10T12:54:15.153Z,24.70
2022-12-10T12:57:00.618Z,20.30
2022-12-10T12:59:54.425Z,18.80
2022-12-10T13:02:52.913Z,17.30
2022-12-10T13:05:31.071Z,16.90
2022-12-10T13:08:30.959Z,19.50
2022-12-10T13:11:17.960Z,16.40
2022-12-10T13:14:20.609Z,16.00
2022-12-10T13:17:04.555Z,19.80
2022-12-10T13:19:37.673Z,18.40
2022-12-10T13:22:12.762Z,20.10
2022-12-10T13:25:17.459Z,24.10
2022-12-10T13:28:17.966Z,25.50
2022-12-10T13:31:21.520Z,21.80
2022-12-10T13:34:26.000Z,19.40
2022-12-10T13:37:20.313Z,23.50
2022-12-10T13:40:02.455Z,19.80
2022-12-10T13:42:56.324Z,22.80
2022-12-10T13:45:33.511Z,22.70
2022-12-10T13:48:37.277Z,24.10
2022-12-10T13:51:21.258Z,19.20
2022-12-10T13:54:16.893Z,20.80
2022-12-10T13:57:00.904Z,23.70
2022-12-10T13:59:45.556Z,22.00
2022-12-10T14:03:03.285Z,22.30
2022-12-10T14:05:57.830Z,19.70
2022-12-10T14:08:34.199Z,21.00
2022-12-10T14:11:14.021Z,17.70
2022-12-10T14:13:49.936Z,19.20
2022-12-10T14:16:25.362Z,18.40
2022-12-10T14:19:01.238Z,20.00
2022-12-10T14:21:38.038Z,20.60
2022-12-10T14:24:30.503Z,24.50
2022-12-10T14:27:07.795Z,25.70
2022-12-10T14:29:40.075Z,22.40
2022-12-10T14:32:18.803Z,22.30
2022-12-10T14:34:54.536Z,25.90
2022-12-10T14:37:29.297Z,23.50
2022-12-10T14:40:02.208Z,25.20
2022-12-10T14:42:35.244Z,27.70
2022-12-10T14:45:15.548Z,28.80
2022-12-10T14:47:49.570Z,28.30
2022-12-10T14:50:21.879Z,26.30
2022-12-10T14:52:55.487Z,27.50
2022-12-10T14:55:28.414Z,35.80
2022-12-10T14:58:03.741Z,26.50
2022-12-10T15:00:37.188Z,26.50
2022-12-10T15:03:21.167Z,26.40
2022-12-10T15:06:03.239Z,26.20
2022-12-10T15:08:35.832Z,31.90
2022-12-10T15:11:08.234Z,23.20
2022-12-10T15:13:44.121Z,24.40
2022-12-10T15:16:22.405Z,21.00
2022-12-10T15:21:29.015Z,20.40
2022-12-10T15:24:18.737Z,24.00
2022-12-10T15:26:52.347Z,22.30
2022-12-10T15:29:40.184Z,20.90
2022-12-10T15:32:18.417Z,24.40
2022-12-10T15:34:55.161Z,24.60
2022-12-10T15:37:30.142Z,23.70
2022-12-10T15:40:05.527Z,25.20
2022-12-10T15:42:46.254Z,30.10
2022-12-10T15:45:29.345Z,28.80
2022-12-10T15:48:01.981Z,30.30
2022-12-10T15:50:34.305Z,29.20
2022-12-10T15:53:06.580Z,33.50
2022-12-10T15:55:38.756Z,29.10
2022-12-10T15:58:14.945Z,27.00
2022-12-10T16:00:47.948Z,22.80
2022-12-10T16:03:20.639Z,23.10
2022-12-10T16:05:52.899Z,25.50
2022-12-10T16:08:28.099Z,27.70
2022-12-10T16:11:05.090Z,25.70
2022-12-10T16:13:41.417Z,23.30
2022-12-10T16:16:14.563Z,25.20
2022-12-10T16:18:46.954Z,22.10
2022-12-10T16:21:19.528Z,24.40
2022-12-10T16:23:51.760Z,26.00
2022-12-10T16:26:25.031Z,23.60
2022-12-10T16:28:57.167Z,26.60
2022-12-10T16:31:30.943Z,25.20
2022-12-10T16:34:03.353Z,26.60
2022-12-10T16:36:37.285Z,28.70
2022-12-10T16:39:10.339Z,27.00
2022-12-10T16:41:43.123Z,25.30
2022-12-10T16:44:15.410Z,25.60
2022-12-10T16:46:47.650Z,23.00
2022-12-10T16:49:19.956Z,24.90
2022-12-10T16:51:53.045Z,23.80
2022-12-10T16:54:25.188Z,26.10
2022-12-10T16:56:57.340Z,25.80
2022-12-10T16:59:29.458Z,23.70
2022-12-10T17:02:01.770Z,23.20
2022-12-10T17:04:34.226Z,26.30
2022-12-10T17:07:08.472Z,26.20
2022-12-10T17:09:40.772Z,22.70
2022-12-10T17:12:13.205Z,23.30
2022-12-10T17:14:48.013Z,25.90
2022-12-10T17:17:20.295Z,26.20
2022-12-10T17:19:52.452Z,28.20
2022-12-10T17:22:24.571Z,28.40
2022-12-10T17:24:56.702Z,25.90
2022-12-10T17:27:28.826Z,27.90
2022-12-10T17:30:02.000Z,27.30
2022-12-10T17:32:34.178Z,25.50
2022-12-10T17:35:08.669Z,27.60
2022-12-10T17:37:43.806Z,27.20
2022-12-10T17:40:19.911Z,30.50
2022-12-10T17:42:52.508Z,27.10
2022-12-10T17:45:24.802Z,26.40
2022-12-10T17:47:58.528Z,25.90
2022-12-10T17:50:34.226Z,25.50
2022-12-10T17:53:10.602Z,24.60
2022-12-10T17:55:48.264Z,23.70
2022-12-10T17:58:24.217Z,22.70
2022-12-10T18:00:57.298Z,21.60
2022-12-10T18:03:29.539Z,23.60
2022-12-10T18:06:01.690Z,26.50
2022-12-10T18:08:34.250Z,25.70
2022-12-10T18:11:06.404Z,24.40
2022-12-10T18:13:41.298Z,25.40
2022-12-10T18:16:18.435Z,24.20
2022-12-10T18:18:50.986Z,26.40
2022-12-10T18:21:23.967Z,26.80
2022-12-10T18:23:57.498Z,27.50
2022-12-10T18:26:31.444Z,25.20
2022-12-10T18:29:05.366Z,25.50
2022-12-10T18:31:38.416Z,26.90
2022-12-10T18:34:13.205Z,30.10
2022-12-10T18:36:47.352Z,25.60
2022-12-10T18:39:22.041Z,22.70
2022-12-10T18:41:55.147Z,23.40
2022-12-10T18:44:31.174Z,21.40
2022-12-10T18:47:03.361Z,20.40
2022-12-10T18:49:35.905Z,22.40
2022-12-10T18:52:08.227Z,22.10
2022-12-10T18:54:41.135Z,22.10
2022-12-10T18:57:34.721Z,22.40
2022-12-10T19:00:16.689Z,21.90
2022-12-10T19:02:51.363Z,23.40
2022-12-10T19:05:23.962Z,21.70
2022-12-10T19:07:56.322Z,23.20
2022-12-10T19:10:28.931Z,18.50
2022-12-10T19:13:01.171Z,21.30
2022-12-10T19:15:38.348Z,21.20
2022-12-10T19:18:17.595Z,20.60
2022-12-10T19:20:53.231Z,18.60
2022-12-10T19:23:29.477Z,18.80
2022-12-10T19:26:01.932Z,20.70
2022-12-10T19:28:34.895Z,20.40
2022-12-10T19:31:07.293Z,24.10
2022-12-10T19:33:39.478Z,19.80
2022-12-10T19:36:17.258Z,22.80
2022-12-10T19:38:49.947Z,20.90
2022-12-10T19:41:22.112Z,19.00
2022-12-10T19:43:54.728Z,18.00
2022-12-10T19:46:28.298Z,18.80
2022-12-10T19:49:00.506Z,18.30
2022-12-10T19:51:32.704Z,18.50
2022-12-10T19:54:05.195Z,20.60
2022-12-10T19:56:38.202Z,20.70
2022-12-10T19:59:16.307Z,19.50
2022-12-10T20:01:49.029Z,20.10
2022-12-10T20:04:21.583Z,18.10
2022-12-10T20:06:55.012Z,20.10
2022-12-10T20:09:28.297Z,19.50
2022-12-10T20:12:00.432Z,18.20
2022-12-10T20:14:32.615Z,21.10
2022-12-10T20:17:04.768Z,21.10
2022-12-10T20:19:37.115Z,20.40
2022-12-10T20:22:09.505Z,21.10
2022-12-10T20:24:41.617Z,20.70
2022-12-10T20:27:16.866Z,22.50
2022-12-10T20:29:49.098Z,22.70
2022-12-10T20:32:22.257Z,19.90
2022-12-10T20:34:55.073Z,18.80
2022-12-10T20:37:27.630Z,17.30
2022-12-10T20:40:29.716Z,17.10
2022-12-10T20:42:52.682Z,20.10
2022-12-10T20:45:24.984Z,17.50
2022-12-10T20:47:57.559Z,21.00
2022-12-10T20:50:29.804Z,18.60
2022-12-10T20:53:01.929Z,19.50
2022-12-10T20:55:34.110Z,18.60
2022-12-10T20:58:06.303Z,20.00
2022-12-10T21:00:38.661Z,16.20
2022-12-10T21:03:10.867Z,17.30
2022-12-10T21:05:43.012Z,21.60
2022-12-10T21:08:18.324Z,19.30
2022-12-10T21:10:54.983Z,20.10
2022-12-10T21:13:29.246Z,27.70
2022-12-10T21:16:04.057Z,22.20
2022-12-10T21:18:36.329Z,20.80
2022-12-10T21:21:09.254Z,20.20
2022-12-10T21:23:41.803Z,20.50
2022-12-10T21:26:14.618Z,22.50
2022-12-10T21:28:49.990Z,22.30
2022-12-10T21:31:24.878Z,18.90
2022-12-10T21:33:57.111Z,20.10
2022-12-10T21:36:30.716Z,20.00
2022-12-10T21:39:03.833Z,18.50
2022-12-10T21:41:53.617Z,17.70
2022-12-10T21:44:25.777Z,19.20
2022-12-10T21:46:57.964Z,19.10
2022-12-10T21:49:30.116Z,17.90
2022-12-10T21:52:02.246Z,17.40
2022-12-10T21:54:34.482Z,16.60
2022-12-10T21:57:06.731Z,17.20
2022-12-10T21:59:38.991Z,16.30
2022-12-10T22:02:12.299Z,16.50
2022-12-10T22:04:44.430Z,17.10
2022-12-10T22:07:18.070Z,15.60
2022-12-10T22:09:50.543Z,15.20
2022-12-10T22:12:22.922Z,16.40
2022-12-10T22:14:55.074Z,16.30
2022-12-10T22:17:27.987Z,18.90
2022-12-10T22:20:00.522Z,20.70
2022-12-10T22:22:34.943Z,16.50
2022-12-10T22:25:09.748Z,19.40
2022-12-10T22:27:42.231Z,16.70
2022-12-10T22:30:15.482Z,16.00
2022-12-10T22:32:48.189Z,16.70
2022-12-10T22:35:21.058Z,17.40
2022-12-10T22:37:55.307Z,16.50
2022-12-10T22:40:27.621Z,17.30
2022-12-10T22:43:15.062Z,15.40
2022-12-10T22:45:56.593Z,16.70
2022-12-10T22:48:29.132Z,17.00
2022-12-10T22:51:06.389Z,19.40
2022-12-10T22:53:38.646Z,16.50
2022-12-10T22:56:13.317Z,19.80
2022-12-10T22:58:45.943Z,20.90
2022-12-10T23:01:19.485Z,22.10
2022-12-10T23:03:53.547Z,19.00
2022-12-10T23:06:27.066Z,18.20
2022-12-10T23:08:59.617Z,17.60
2022-12-10T23:11:31.737Z,17.40
2022-12-10T23:14:03.827Z,17.10
2022-12-10T23:16:36.022Z,17.30
2022-12-10T23:19:08.287Z,17.00
2022-12-10T23:21:40.555Z,16.90
2022-12-10T23:24:13.093Z,17.10
2022-12-10T23:26:45.425Z,17.70
2022-12-10T23:29:17.694Z,18.60
2022-12-10T23:31:49.852Z,16.40
2022-12-10T23:34:22.239Z,16.80
2022-12-10T23:36:54.461Z,15.00
2022-12-10T23:39:26.564Z,15.30
2022-12-10T23:41:58.861Z,14.00
2022-12-10T23:44:31.043Z,14.70
2022-12-10T23:47:03.229Z,14.80
2022-12-10T23:49:35.690Z,15.90
2022-12-10T23:52:10.067Z,13.90
2022-12-10T23:54:42.827Z,15.50
2022-12-10T23:57:15.039Z,14.00
2022-12-10T23:59:47.339Z,14.90
